Time;durP1;ratioP1;P1;durP2;ratioP2;P2;SDS_P1;SDS_P2;PMS_P1;PMS_P2;Temp;Humidity;BMP_temperature;BMP_pressure;BME280_temperature;BME280_humidity;BME280_pressure;Samples;Min_cycle;Max_cycle;Signal;HPM_P1;HPM_P2
2022/05/14 00:01:53;;;;;;;35.03;21.48;;;16.40;87.40;;;;;;5033451;28;20061;-14
2022/05/14 00:04:20;;;;;;;32.42;20.40;;;16.40;87.50;;;;;;5031733;28;20033;-13
2022/05/14 00:06:46;;;;;;;39.53;23.75;;;16.50;87.20;;;;;;5033358;28;20080;-14
2022/05/14 00:09:12;;;;;;;38.38;22.83;;;16.50;87.10;;;;;;5033040;28;20545;-13
2022/05/14 00:14:23;;;;;;;32.25;21.23;;;16.50;86.90;;;;;;5033067;28;20080;-14
2022/05/14 00:16:50;;;;;;;31.15;19.48;;;16.50;87.10;;;;;;5033291;28;20017;-13
2022/05/14 00:19:16;;;;;;;36.22;24.25;;;16.50;87.30;;;;;;5033226;28;20481;-11
2022/05/14 00:21:42;;;;;;;26.08;17.67;;;16.60;87.30;;;;;;5033287;28;20117;-13
2022/05/14 00:24:09;;;;;;;34.35;21.38;;;16.60;87.50;;;;;;5033137;28;20460;-11
2022/05/14 00:26:37;;;;;;;27.88;18.05;;;16.60;87.50;;;;;;5032748;28;20389;-12
2022/05/14 00:29:05;;;;;;;25.45;16.60;;;16.60;87.30;;;;;;5033042;28;20041;-14
2022/05/14 00:31:31;;;;;;;21.17;15.77;;;16.60;87.40;;;;;;5032904;28;20061;-12
2022/05/14 00:33:57;;;;;;;25.23;18.13;;;16.60;87.40;;;;;;5031774;28;20073;-13
2022/05/14 00:36:23;;;;;;;28.83;18.85;;;16.60;87.30;;;;;;5032717;28;20018;-13
2022/05/14 00:38:49;;;;;;;29.50;17.30;;;16.70;87.30;;;;;;5033039;28;20473;-11
2022/05/14 00:41:16;;;;;;;30.30;21.17;;;16.70;87.30;;;;;;5032763;28;20041;-13
2022/05/14 00:43:54;;;;;;;27.67;19.15;;;16.60;87.30;;;;;;5032552;28;20029;-15
2022/05/14 00:46:24;;;;;;;28.52;20.00;;;16.70;87.50;;;;;;5032682;28;20029;-14
2022/05/14 00:48:52;;;;;;;34.60;23.17;;;16.70;87.50;;;;;;5032857;28;20030;-13
2022/05/14 00:51:28;;;;;;;30.33;19.40;;;16.70;88.20;;;;;;5032913;28;20033;-14
2022/05/14 00:53:59;;;;;;;30.90;20.25;;;16.70;87.90;;;;;;5032739;28;20021;-13
2022/05/14 00:56:32;;;;;;;31.25;19.42;;;16.70;87.90;;;;;;5036843;28;20457;-14
2022/05/14 00:59:09;;;;;;;27.73;18.90;;;16.70;87.50;;;;;;5036766;28;20385;-13
2022/05/14 01:01:37;;;;;;;32.33;21.27;;;16.70;87.40;;;;;;5036624;28;20025;-13
2022/05/14 01:04:04;;;;;;;33.63;20.83;;;16.70;87.40;;;;;;5036267;28;20377;-14
2022/05/14 01:06:33;;;;;;;39.63;24.02;;;16.70;87.50;;;;;;5036037;28;20041;-14
2022/05/14 01:08:59;;;;;;;35.13;23.52;;;16.80;87.50;;;;;;5036427;28;20034;-13
2022/05/14 01:11:28;;;;;;;28.67;19.73;;;16.80;87.90;;;;;;5036486;28;20036;-13
2022/05/14 01:13:54;;;;;;;37.03;25.17;;;16.80;87.80;;;;;;5035974;28;20424;-13
2022/05/14 01:16:20;;;;;;;35.63;21.60;;;16.80;87.80;;;;;;5036167;28;20025;-13
2022/05/14 01:18:49;;;;;;;25.80;17.88;;;16.90;87.80;;;;;;5036335;28;20068;-13
2022/05/14 01:21:20;;;;;;;30.00;20.60;;;16.80;87.40;;;;;;5036291;28;20044;-15
2022/05/14 01:26:49;;;;;;;35.03;23.73;;;16.80;87.40;;;;;;5036549;28;20103;-14
2022/05/14 01:29:21;;;;;;;27.08;18.25;;;16.80;87.40;;;;;;5036072;28;20037;-13
2022/05/14 01:31:49;;;;;;;36.90;24.55;;;16.80;87.40;;;;;;5034665;28;20022;-14
2022/05/14 01:34:20;;;;;;;28.27;18.67;;;16.80;87.80;;;;;;5035889;28;20036;-14
2022/05/14 01:36:47;;;;;;;29.23;19.35;;;16.80;87.50;;;;;;5035769;28;20025;-14
2022/05/14 01:39:13;;;;;;;31.52;21.40;;;16.80;87.50;;;;;;5035684;28;20081;-12
2022/05/14 01:41:40;;;;;;;25.25;18.55;;;16.80;87.40;;;;;;5036231;28;20029;-13
2022/05/14 01:44:07;;;;;;;30.30;21.20;;;16.80;87.40;;;;;;5035190;28;20052;-13
2022/05/14 01:46:33;;;;;;;29.90;19.75;;;16.80;87.30;;;;;;5035469;28;20030;-14
2022/05/14 01:48:59;;;;;;;33.28;21.02;;;16.80;87.40;;;;;;5035728;28;20033;-13
2022/05/14 01:51:25;;;;;;;29.95;20.90;;;16.70;87.40;;;;;;5035426;28;20393;-13
2022/05/14 01:53:52;;;;;;;32.90;21.98;;;16.70;87.50;;;;;;5035431;28;20057;-13
2022/05/14 01:56:18;;;;;;;27.90;19.17;;;16.70;87.60;;;;;;5035282;28;20381;-13
2022/05/14 01:58:44;;;;;;;26.65;18.13;;;16.70;87.50;;;;;;5035276;28;20033;-13
2022/05/14 02:01:15;;;;;;;24.13;16.90;;;16.60;87.40;;;;;;5035942;28;20033;-13
2022/05/14 02:03:47;;;;;;;26.20;18.80;;;16.60;87.50;;;;;;5035279;28;20508;-13
2022/05/14 02:06:14;;;;;;;28.75;19.77;;;16.60;87.50;;;;;;5035420;28;20030;-13
2022/05/14 02:08:41;;;;;;;33.30;22.17;;;16.70;87.50;;;;;;5035336;28;20107;-14
2022/05/14 02:11:08;;;;;;;44.92;26.77;;;16.70;87.50;;;;;;5035360;28;20029;-15
2022/05/14 02:13:36;;;;;;;30.05;20.25;;;16.60;87.60;;;;;;5035621;28;20025;-13
2022/05/14 02:16:02;;;;;;;26.38;19.38;;;16.60;87.60;;;;;;5035168;28;20026;-14
2022/05/14 02:18:28;;;;;;;35.80;23.60;;;16.60;87.70;;;;;;5035043;28;20025;-14
2022/05/14 02:20:54;;;;;;;29.10;18.25;;;16.60;87.70;;;;;;5034989;28;20103;-13
2022/05/14 02:23:20;;;;;;;23.15;16.83;;;16.60;87.80;;;;;;5034848;28;20116;-13
2022/05/14 02:25:46;;;;;;;23.60;17.23;;;16.50;87.80;;;;;;5034847;28;20029;-14
2022/05/14 02:28:12;;;;;;;18.00;13.50;;;16.50;87.80;;;;;;5034698;28;20034;-14
2022/05/14 02:30:39;;;;;;;26.70;18.40;;;16.50;87.80;;;;;;5034596;28;20032;-13
2022/05/14 02:33:06;;;;;;;27.38;19.17;;;16.60;88.10;;;;;;5034668;28;20032;-14
2022/05/14 02:35:32;;;;;;;22.25;15.57;;;16.50;87.90;;;;;;5287034;22;20396;-14
2022/05/14 02:37:58;;;;;;;21.35;13.82;;;16.40;87.90;;;;;;5229994;22;20781;-22
2022/05/14 02:40:24;;;;;;;23.00;13.63;;;16.40;87.80;;;;;;5220250;22;20107;-17
2022/05/14 02:42:52;;;;;;;21.95;14.95;;;16.40;87.70;;;;;;5054415;28;20060;-18
2022/05/14 02:45:18;;;;;;;23.92;16.23;;;16.40;87.70;;;;;;5054385;28;20438;-17
2022/05/14 02:47:45;;;;;;;24.38;16.23;;;16.40;87.70;;;;;;5054250;28;20037;-17
2022/05/14 02:50:11;;;;;;;20.10;14.40;;;16.40;87.80;;;;;;5053065;28;20028;-16
2022/05/14 02:52:38;;;;;;;19.50;14.13;;;16.30;87.70;;;;;;5054073;28;20037;-16
2022/05/14 02:55:06;;;;;;;27.40;18.75;;;16.30;87.60;;;;;;5054466;28;20028;-15
2022/05/14 02:57:33;;;;;;;29.98;19.27;;;16.30;87.70;;;;;;5053196;28;20024;-16
2022/05/14 02:59:59;;;;;;;23.50;16.30;;;16.20;87.60;;;;;;5054338;28;20027;-16
2022/05/14 03:02:25;;;;;;;26.30;16.27;;;16.10;87.60;;;;;;5052576;28;20024;-16
2022/05/14 03:04:51;;;;;;;24.23;16.30;;;16.10;87.80;;;;;;5054006;28;20452;-17
2022/05/14 03:07:17;;;;;;;23.27;16.42;;;16.10;87.90;;;;;;5054177;28;20376;-16
2022/05/14 03:09:44;;;;;;;20.50;15.18;;;16.10;88.00;;;;;;5053809;28;20037;-15
2022/05/14 03:12:12;;;;;;;22.48;16.95;;;16.10;88.00;;;;;;5053913;28;20545;-16
2022/05/14 03:14:39;;;;;;;18.98;14.15;;;16.10;88.00;;;;;;5054207;28;20042;-15
2022/05/14 03:17:05;;;;;;;22.25;15.75;;;16.10;88.00;;;;;;5053238;28;20032;-16
2022/05/14 03:19:32;;;;;;;33.88;23.08;;;16.10;88.10;;;;;;5053722;28;20480;-16
2022/05/14 03:21:59;;;;;;;29.08;21.23;;;16.00;88.10;;;;;;5053649;28;20036;-16
2022/05/14 03:24:25;;;;;;;26.35;18.92;;;16.00;88.00;;;;;;5053313;28;20556;-16
2022/05/14 03:26:51;;;;;;;25.15;17.30;;;16.00;88.00;;;;;;5053548;28;20111;-16
2022/05/14 03:29:17;;;;;;;34.97;23.38;;;16.00;88.10;;;;;;5053728;28;20082;-16
2022/05/14 03:31:43;;;;;;;22.60;15.55;;;15.90;88.10;;;;;;5053760;28;20025;-15
2022/05/14 03:34:11;;;;;;;22.38;16.35;;;16.00;88.20;;;;;;5052309;28;20508;-16
2022/05/14 03:36:41;;;;;;;22.40;15.38;;;16.00;88.20;;;;;;5053259;28;20063;-16
2022/05/14 03:39:08;;;;;;;24.90;17.45;;;16.00;88.20;;;;;;5053829;28;20029;-16
2022/05/14 03:41:34;;;;;;;37.65;23.92;;;16.00;88.20;;;;;;5053147;28;20082;-16
2022/05/14 03:44:01;;;;;;;30.38;19.45;;;16.00;88.10;;;;;;5053316;28;20099;-16
2022/05/14 03:46:27;;;;;;;31.35;20.10;;;16.00;88.20;;;;;;5053164;28;20025;-17
2022/05/14 03:48:53;;;;;;;24.10;16.95;;;16.00;88.20;;;;;;5053498;28;20040;-16
2022/05/14 03:51:19;;;;;;;23.42;16.45;;;16.00;88.10;;;;;;5053448;28;20028;-16
2022/05/14 03:53:47;;;;;;;24.63;17.02;;;16.10;88.20;;;;;;5053476;28;20029;-16
2022/05/14 03:56:14;;;;;;;24.13;17.15;;;16.10;88.10;;;;;;5053380;28;20032;-16
2022/05/14 03:58:40;;;;;;;23.17;17.30;;;16.10;88.10;;;;;;5053352;28;20021;-16
2022/05/14 04:01:06;;;;;;;23.05;16.08;;;16.10;88.20;;;;;;5053670;28;20511;-16
2022/05/14 04:03:34;;;;;;;23.70;16.27;;;16.10;88.00;;;;;;5053070;28;20025;-16
2022/05/14 04:06:04;;;;;;;32.40;20.75;;;16.10;88.00;;;;;;5107546;22;20049;-14
2022/05/14 04:08:31;;;;;;;21.35;15.23;;;16.20;88.00;;;;;;5052916;28;20565;-13
2022/05/14 04:10:57;;;;;;;28.05;19.52;;;16.20;88.00;;;;;;5053019;28;20475;-13
2022/05/14 04:13:23;;;;;;;23.95;17.10;;;16.20;87.90;;;;;;5053212;28;20021;-13
2022/05/14 04:15:50;;;;;;;25.33;17.48;;;16.20;88.00;;;;;;5053297;28;20373;-13
2022/05/14 04:18:20;;;;;;;29.00;18.98;;;16.20;88.00;;;;;;5052813;28;20026;-13
2022/05/14 04:20:46;;;;;;;25.02;18.10;;;16.30;88.00;;;;;;5053082;28;20376;-15
2022/05/14 04:23:12;;;;;;;33.15;22.05;;;16.20;87.90;;;;;;5053172;28;20025;-14
2022/05/14 04:25:39;;;;;;;22.30;15.68;;;16.20;87.90;;;;;;5053173;28;20029;-14
2022/05/14 04:28:05;;;;;;;21.33;15.38;;;16.10;88.10;;;;;;5051550;28;20040;-13
2022/05/14 04:30:31;;;;;;;27.65;18.65;;;16.10;88.30;;;;;;5055565;28;20100;-14
2022/05/14 04:32:57;;;;;;;17.95;13.93;;;16.10;88.30;;;;;;5056783;28;20021;-13
2022/05/14 04:35:23;;;;;;;21.10;13.60;;;16.10;88.20;;;;;;5057050;28;20524;-14
2022/05/14 04:37:49;;;;;;;19.60;13.93;;;16.20;88.30;;;;;;5057333;28;20067;-15
2022/05/14 04:40:15;;;;;;;21.35;15.52;;;16.20;88.30;;;;;;5055294;28;20388;-14
2022/05/14 04:42:44;;;;;;;21.45;15.05;;;16.20;88.30;;;;;;5056670;28;20031;-13
2022/05/14 04:45:10;;;;;;;19.10;14.25;;;16.30;88.40;;;;;;5056936;28;20476;-12
2022/05/14 04:47:39;;;;;;;20.20;14.85;;;16.30;88.20;;;;;;5056482;28;20029;-13
2022/05/14 04:50:06;;;;;;;24.27;16.50;;;16.30;88.50;;;;;;5056537;28;20024;-14
2022/05/14 04:52:32;;;;;;;22.08;15.57;;;16.40;88.40;;;;;;5056541;28;20032;-13
2022/05/14 04:54:58;;;;;;;31.88;21.80;;;16.50;88.00;;;;;;5057048;28;20368;-16
2022/05/14 04:57:24;;;;;;;26.30;19.40;;;16.50;88.10;;;;;;5056715;28;20087;-13
2022/05/14 04:59:50;;;;;;;28.45;19.30;;;16.60;88.00;;;;;;5124810;22;20496;-18
2022/05/14 05:05:00;;;;;;;27.40;19.83;;;16.70;87.80;;;;;;5056626;28;20036;-17
2022/05/14 05:07:26;;;;;;;29.52;20.08;;;16.90;88.00;;;;;;5056991;28;20032;-17
2022/05/14 05:09:53;;;;;;;25.27;19.20;;;16.90;87.80;;;;;;5056105;28;20021;-17
2022/05/14 05:12:19;;;;;;;20.42;15.90;;;17.00;87.70;;;;;;5056069;28;20021;-17
2022/05/14 05:14:45;;;;;;;30.58;20.80;;;17.00;87.70;;;;;;5054777;28;20435;-17
2022/05/14 05:17:12;;;;;;;25.35;18.17;;;17.10;87.50;;;;;;5056036;28;20021;-17
2022/05/14 05:19:41;;;;;;;30.63;21.15;;;17.20;87.50;;;;;;5055921;28;20108;-17
2022/05/14 05:22:07;;;;;;;25.65;19.30;;;17.40;87.80;;;;;;5055894;28;20021;-16
2022/05/14 05:24:33;;;;;;;27.17;19.02;;;17.40;87.70;;;;;;5055683;28;20029;-17
2022/05/14 05:26:59;;;;;;;23.65;17.33;;;17.50;87.50;;;;;;5055119;28;20485;-17
2022/05/14 05:29:25;;;;;;;27.00;19.20;;;17.60;87.60;;;;;;5055625;28;20041;-18
2022/05/14 05:31:51;;;;;;;21.33;16.33;;;17.70;88.20;;;;;;5055753;28;20031;-18
2022/05/14 05:34:17;;;;;;;22.95;15.88;;;17.80;87.90;;;;;;5055839;28;20147;-17
2022/05/14 05:36:43;;;;;;;32.83;21.52;;;17.90;87.50;;;;;;5055653;28;20028;-17
2022/05/14 05:39:10;;;;;;;24.92;16.90;;;18.10;88.00;;;;;;5056216;28;20017;-18
2022/05/14 05:41:36;;;;;;;26.70;19.20;;;18.30;87.20;;;;;;5055434;28;20037;-18
2022/05/14 05:44:03;;;;;;;25.35;19.35;;;18.40;87.10;;;;;;5055720;28;20017;-18
2022/05/14 05:46:31;;;;;;;25.63;17.30;;;18.50;87.50;;;;;;5090822;22;20045;-13
2022/05/14 05:48:57;;;;;;;24.63;16.67;;;18.50;86.80;;;;;;5035483;28;20021;-13
2022/05/14 05:51:23;;;;;;;22.58;16.20;;;18.60;86.50;;;;;;5035803;28;20041;-13
2022/05/14 05:56:56;;;;;;;20.15;15.05;;;18.80;86.20;;;;;;5035280;28;20083;-15
2022/05/14 05:59:23;;;;;;;16.90;13.50;;;18.80;85.90;;;;;;5035382;28;20030;-13
2022/05/14 06:01:52;;;;;;;20.73;13.70;;;18.90;85.60;;;;;;5035292;28;20033;-13
2022/05/14 06:04:18;;;;;;;20.98;14.95;;;18.90;85.40;;;;;;5035152;28;20021;-13
2022/05/14 06:06:44;;;;;;;27.85;18.58;;;19.00;85.50;;;;;;5035036;28;20117;-13
2022/05/14 06:09:14;;;;;;;20.30;14.27;;;19.10;85.60;;;;;;5035125;28;20109;-13
2022/05/14 06:11:44;;;;;;;15.18;11.20;;;19.30;87.00;;;;;;5035422;28;20072;-14
2022/05/14 06:14:12;;;;;;;19.20;14.32;;;19.40;86.10;;;;;;5035094;28;20105;-13
2022/05/14 06:16:39;;;;;;;19.77;15.20;;;19.60;86.30;;;;;;5034803;28;20021;-13
2022/05/14 06:19:06;;;;;;;22.70;15.02;;;19.80;86.10;;;;;;5035232;28;20083;-13
2022/05/14 06:21:33;;;;;;;17.92;13.77;;;20.00;86.40;;;;;;5034982;28;20496;-13
2022/05/14 06:23:59;;;;;;;18.17;13.68;;;20.20;85.90;;;;;;5035162;28;20034;-14
2022/05/14 06:26:25;;;;;;;24.13;15.43;;;20.40;85.60;;;;;;5034618;28;20034;-13
2022/05/14 06:28:51;;;;;;;17.67;12.95;;;20.50;85.70;;;;;;5034621;28;20041;-13
2022/05/14 06:31:18;;;;;;;21.40;14.13;;;20.70;85.70;;;;;;5120539;22;20053;-18
2022/05/14 06:33:46;;;;;;;20.52;14.95;;;20.90;84.90;;;;;;5108082;22;20391;-15
2022/05/14 06:36:12;;;;;;;15.07;11.40;;;21.00;84.30;;;;;;5034149;28;20038;-14
2022/05/14 06:38:39;;;;;;;16.63;12.60;;;21.20;84.00;;;;;;5034940;28;20049;-13
2022/05/14 06:41:11;;;;;;;18.80;13.30;;;21.30;83.70;;;;;;5034553;28;20052;-13
2022/05/14 06:46:10;;;;;;;18.38;11.82;;;21.70;82.90;;;;;;5032563;28;20400;-17
2022/05/14 06:48:36;;;;;;;16.30;11.55;;;21.90;82.20;;;;;;5034189;28;20025;-16
2022/05/14 06:51:12;;;;;;;20.23;13.82;;;22.00;81.50;;;;;;5034300;28;20107;-17
2022/05/14 06:53:40;;;;;;;15.98;11.35;;;22.20;81.10;;;;;;5033697;28;20017;-17
2022/05/14 06:56:08;;;;;;;11.55;9.15;;;22.50;80.70;;;;;;5034208;28;20022;-16
2022/05/14 06:58:38;;;;;;;15.70;11.32;;;22.70;80.30;;;;;;5033905;28;20033;-17
2022/05/14 07:01:06;;;;;;;16.52;12.85;;;23.00;78.70;;;;;;5034359;28;20416;-16
2022/05/14 07:06:38;;;;;;;13.05;9.43;;;23.50;76.90;;;;;;5034212;28;20084;-16
2022/05/14 07:09:15;;;;;;;13.25;9.30;;;23.80;76.30;;;;;;5034385;28;20104;-17
2022/05/14 07:11:43;;;;;;;14.85;9.52;;;24.10;74.30;;;;;;5034044;28;20029;-16
2022/05/14 07:14:12;;;;;;;15.73;9.38;;;24.40;74.10;;;;;;5034092;28;20080;-17
2022/05/14 07:16:38;;;;;;;15.32;10.40;;;24.70;72.80;;;;;;5034237;28;20014;-17
2022/05/14 07:19:08;;;;;;;16.00;9.90;;;24.90;71.60;;;;;;5034692;28;20020;-17
2022/05/14 07:21:36;;;;;;;15.38;11.70;;;25.20;71.00;;;;;;5034359;28;20436;-17
2022/05/14 07:24:05;;;;;;;13.32;9.80;;;25.40;69.60;;;;;;5222454;22;20193;-14
2022/05/14 07:29:06;;;;;;;13.55;9.77;;;25.40;69.70;;;;;;5410956;22;20037;-17
2022/05/14 07:31:34;;;;;;;16.50;10.85;;;25.50;69.20;;;;;;5198529;22;20048;-16
2022/05/14 07:34:01;;;;;;;15.23;11.90;;;25.70;68.70;;;;;;5093707;28;20054;-16
2022/05/14 07:36:29;;;;;;;10.05;7.57;;;25.90;68.40;;;;;;5093433;28;20032;-16
2022/05/14 07:38:59;;;;;;;12.80;8.23;;;26.00;66.60;;;;;;5194017;22;20997;-13
2022/05/14 07:41:26;;;;;;;12.30;8.65;;;26.20;65.60;;;;;;5224581;22;20109;-16
2022/05/14 07:43:55;;;;;;;14.32;8.65;;;26.50;64.80;;;;;;5073615;28;20032;-16
2022/05/14 07:48:53;;;;;;;12.70;8.63;;;27.10;62.70;;;;;;5050512;28;20056;-17
2022/05/14 07:51:20;;;;;;;12.13;9.25;;;27.40;61.50;;;;;;5192339;22;20112;-18
2022/05/14 07:53:46;;;;;;;11.27;7.95;;;27.50;60.80;;;;;;5053466;28;20028;-18
2022/05/14 07:58:46;;;;;;;12.15;8.13;;;27.90;56.80;;;;;;5155868;22;20056;-13
2022/05/14 08:01:12;;;;;;;9.07;7.18;;;27.80;57.20;;;;;;5127308;22;20057;-17
2022/05/14 08:03:38;;;;;;;14.02;8.50;;;27.80;57.30;;;;;;5052928;28;20032;-17
2022/05/14 08:06:04;;;;;;;9.60;7.65;;;27.70;56.80;;;;;;5035152;28;20029;-16
2022/05/14 08:08:31;;;;;;;9.30;7.20;;;27.70;57.20;;;;;;5052987;28;20065;-19
2022/05/14 08:10:57;;;;;;;9.68;7.03;;;27.80;57.30;;;;;;5053399;28;20021;-18
2022/05/14 08:13:25;;;;;;;13.32;7.82;;;27.70;57.40;;;;;;5052913;28;20027;-18
2022/05/14 08:15:52;;;;;;;11.35;7.88;;;27.70;57.10;;;;;;5052819;28;20388;-18
2022/05/14 08:18:19;;;;;;;11.13;7.57;;;27.70;56.10;;;;;;5052704;28;20025;-18
2022/05/14 08:20:50;;;;;;;10.80;7.55;;;27.90;54.60;;;;;;5053189;28;20075;-18
2022/05/14 08:26:03;;;;;;;11.52;7.28;;;28.60;53.80;;;;;;5226594;22;20031;-17
2022/05/14 08:28:30;;;;;;;13.45;7.95;;;28.90;53.40;;;;;;5050993;28;20084;-16
2022/05/14 08:30:56;;;;;;;11.85;7.70;;;29.20;52.10;;;;;;5052753;28;20029;-15
2022/05/14 08:33:23;;;;;;;9.23;7.13;;;29.40;51.10;;;;;;5052979;28;20060;-15
2022/05/14 08:35:49;;;;;;;11.60;8.57;;;29.60;51.40;;;;;;5053019;28;20053;-16
2022/05/14 08:38:17;;;;;;;9.50;6.93;;;29.80;50.50;;;;;;5052535;28;20028;-16
2022/05/14 08:40:55;;;;;;;9.60;6.78;;;30.00;50.80;;;;;;5052689;28;20121;-16
2022/05/14 08:43:43;;;;;;;11.10;7.82;;;30.20;49.80;;;;;;5052697;28;20526;-16
2022/05/14 08:46:13;;;;;;;8.95;7.10;;;30.40;49.70;;;;;;5052633;28;20024;-16
2022/05/14 08:48:40;;;;;;;10.32;6.70;;;30.40;49.50;;;;;;5052441;28;20391;-15
2022/05/14 08:51:15;;;;;;;8.05;6.00;;;30.40;50.00;;;;;;5052560;28;20439;-15
2022/05/14 08:53:43;;;;;;;10.65;7.40;;;30.50;49.40;;;;;;5052936;28;20142;-15
2022/05/14 08:56:21;;;;;;;8.93;6.70;;;30.70;48.60;;;;;;5052455;28;20563;-15
2022/05/14 08:58:57;;;;;;;10.85;6.82;;;30.90;46.30;;;;;;5052811;28;20078;-15
2022/05/14 09:01:26;;;;;;;8.98;7.00;;;30.90;47.50;;;;;;5052865;28;20025;-15
2022/05/14 09:03:53;;;;;;;11.35;7.40;;;30.90;47.50;;;;;;5052736;28;20484;-14
2022/05/14 09:06:19;;;;;;;9.70;7.10;;;31.00;47.60;;;;;;5052233;28;20021;-15
2022/05/14 09:08:46;;;;;;;12.20;7.00;;;31.10;47.50;;;;;;5051764;28;20041;-15
2022/05/14 09:11:36;;;;;;;10.93;7.40;;;31.30;46.60;;;;;;5052710;28;20032;-15
2022/05/14 09:14:06;;;;;;;9.23;6.68;;;31.40;46.70;;;;;;5051154;28;20028;-15
2022/05/14 09:16:36;;;;;;;10.52;7.13;;;31.70;46.80;;;;;;5054740;28;20021;-15
2022/05/14 09:21:35;;;;;;;9.63;7.45;;;31.70;45.00;;;;;;5072702;28;20044;-14
2022/05/14 09:24:24;;;;;;;10.68;6.45;;;31.70;44.60;;;;;;5076247;28;20383;-13
2022/05/14 09:26:54;;;;;;;10.75;8.40;;;31.90;43.50;;;;;;5075936;28;20021;-16
2022/05/14 09:29:39;;;;;;;10.38;7.05;;;32.00;44.20;;;;;;5075974;28;20074;-15
2022/05/14 09:32:30;;;;;;;8.40;6.28;;;32.00;44.30;;;;;;5075822;28;20471;-15
2022/05/14 09:35:13;;;;;;;11.88;6.72;;;31.70;43.40;;;;;;5075696;28;20021;-15
2022/05/14 09:37:41;;;;;;;8.77;6.60;;;31.40;44.70;;;;;;5076036;28;20021;-14
2022/05/14 09:40:27;;;;;;;7.25;5.75;;;31.60;44.30;;;;;;5075648;28;20096;-14
2022/05/14 09:43:06;;;;;;;8.82;6.40;;;31.70;44.30;;;;;;5076252;28;20078;-14
2022/05/14 09:45:38;;;;;;;8.38;6.03;;;31.70;44.30;;;;;;5075608;28;20063;-14
2022/05/14 09:48:18;;;;;;;7.82;6.10;;;31.90;44.50;;;;;;5075436;28;20586;-14
2022/05/14 09:50:55;;;;;;;7.78;6.53;;;32.10;42.80;;;;;;5075722;28;20037;-14
2022/05/14 09:53:33;;;;;;;10.60;6.50;;;32.30;43.00;;;;;;5075754;28;20044;-15
2022/05/14 09:56:37;;;;;;;8.73;6.95;;;32.50;42.80;;;;;;5075394;28;20024;-14
2022/05/14 09:59:37;;;;;;;7.32;5.68;;;32.70;42.60;;;;;;5075465;28;20021;-14
2022/05/14 10:02:42;;;;;;;8.52;6.50;;;32.90;42.80;;;;;;5075504;28;20121;-14
2022/05/14 10:05:38;;;;;;;8.40;5.60;;;33.20;42.40;;;;;;5075405;28;20020;-15
2022/05/14 10:08:16;;;;;;;10.55;6.20;;;33.20;42.00;;;;;;5075109;28;20028;-14
2022/05/14 10:11:10;;;;;;;7.00;5.57;;;33.40;41.80;;;;;;5075421;28;20032;-14
2022/05/14 10:13:54;;;;;;;7.68;5.40;;;33.20;39.80;;;;;;5075366;28;20016;-14
2022/05/14 10:16:28;;;;;;;9.65;6.15;;;33.00;40.10;;;;;;5128406;22;20449;-14
2022/05/14 10:19:06;;;;;;;9.40;6.03;;;33.10;41.30;;;;;;5075131;28;20020;-13
2022/05/14 10:21:43;;;;;;;6.57;5.80;;;33.30;39.80;;;;;;5074857;28;20039;-13
2022/05/14 10:27:02;;;;;;;9.07;6.25;;;34.00;39.90;;;;;;5075087;28;20036;-14
2022/05/14 10:29:53;;;;;;;8.35;5.75;;;34.40;38.80;;;;;;5074614;28;20028;-13
2022/05/14 10:32:23;;;;;;;7.53;6.15;;;34.70;38.50;;;;;;5074450;28;20024;-14
2022/05/14 10:35:07;;;;;;;9.18;5.97;;;35.10;38.30;;;;;;5074855;28;20101;-13
2022/05/14 10:37:38;;;;;;;6.43;5.72;;;35.40;37.00;;;;;;5074945;28;20528;-12
2022/05/14 10:40:30;;;;;;;9.50;6.30;;;35.70;37.70;;;;;;5074717;28;20024;-13
2022/05/14 10:42:56;;;;;;;7.60;6.03;;;35.90;35.80;;;;;;5074738;28;20024;-13
2022/05/14 10:45:24;;;;;;;6.20;5.60;;;36.20;36.20;;;;;;5074256;28;20032;-13
2022/05/14 10:48:17;;;;;;;8.27;5.63;;;36.50;36.30;;;;;;5074232;28;20116;-13
2022/05/14 10:50:43;;;;;;;7.13;5.47;;;36.80;34.70;;;;;;5074299;28;20028;-13
2022/05/14 10:53:10;;;;;;;7.85;6.15;;;37.00;35.40;;;;;;5074127;28;20028;-13
2022/05/14 10:55:56;;;;;;;7.80;5.90;;;37.20;35.20;;;;;;5074159;28;20024;-13
2022/05/14 10:58:47;;;;;;;7.78;5.40;;;36.90;34.60;;;;;;5073965;28;20032;-13
2022/05/14 11:01:34;;;;;;;6.72;5.80;;;36.50;35.70;;;;;;5074141;28;20078;-13
2022/05/14 11:04:13;;;;;;;8.52;5.70;;;36.70;34.10;;;;;;5073997;28;20025;-13
2022/05/14 11:06:54;;;;;;;7.88;5.68;;;36.60;35.70;;;;;;5074772;28;20074;-13
2022/05/14 11:09:42;;;;;;;8.52;5.03;;;36.40;36.20;;;;;;5074126;28;20043;-12
2022/05/14 11:12:29;;;;;;;7.35;5.38;;;35.90;36.30;;;;;;5073958;28;20120;-13
2022/05/14 11:14:57;;;;;;;7.80;5.28;;;35.60;38.00;;;;;;5074496;28;20020;-14
2022/05/14 11:17:34;;;;;;;6.38;4.85;;;35.30;38.50;;;;;;5073451;28;20052;-12
2022/05/14 11:20:06;;;;;;;4.93;4.40;;;35.10;39.10;;;;;;5074170;28;20025;-13
2022/05/14 11:23:02;;;;;;;7.78;4.97;;;34.90;39.10;;;;;;5073744;28;20136;-13
2022/05/14 11:25:29;;;;;;;7.40;5.00;;;34.90;38.10;;;;;;5073652;28;20468;-13
2022/05/14 11:27:57;;;;;;;6.95;5.40;;;34.80;38.90;;;;;;5073416;28;20107;-14
2022/05/14 11:30:34;;;;;;;6.90;4.95;;;34.80;39.10;;;;;;5073504;28;20056;-13
2022/05/14 11:33:01;;;;;;;8.25;5.50;;;34.80;38.50;;;;;;5073825;28;20028;-13
2022/05/14 11:35:56;;;;;;;6.28;5.25;;;34.70;37.60;;;;;;5073645;28;20434;-13
2022/05/14 11:38:28;;;;;;;8.18;5.18;;;34.50;38.20;;;;;;5071560;28;20488;-13
2022/05/14 11:41:02;;;;;;;8.30;5.70;;;34.40;38.70;;;;;;5073369;28;20036;-13
2022/05/14 11:43:38;;;;;;;6.60;5.68;;;34.20;38.00;;;;;;5073660;28;20028;-13
2022/05/14 11:46:09;;;;;;;7.95;6.03;;;33.90;38.10;;;;;;5073592;28;20029;-13
2022/05/14 11:48:58;;;;;;;7.93;5.90;;;33.40;39.10;;;;;;5073029;28;20042;-13
2022/05/14 11:51:32;;;;;;;6.93;4.93;;;33.00;39.50;;;;;;5066970;28;20036;-13
2022/05/14 11:54:34;;;;;;;8.48;5.35;;;32.80;40.70;;;;;;5073490;28;20039;-13
2022/05/14 11:57:11;;;;;;;7.47;5.50;;;32.60;41.10;;;;;;5073640;28;20507;-13
2022/05/14 11:59:51;;;;;;;9.55;6.07;;;32.40;41.20;;;;;;5073204;28;20032;-13
2022/05/14 12:02:34;;;;;;;8.48;6.10;;;32.30;42.00;;;;;;5072865;28;20028;-13
2022/05/14 12:05:01;;;;;;;8.52;6.50;;;32.10;42.70;;;;;;5073168;28;20027;-13
2022/05/14 12:07:40;;;;;;;9.88;6.75;;;31.70;43.40;;;;;;5073364;28;20024;-13
2022/05/14 12:10:34;;;;;;;6.93;5.47;;;31.40;44.50;;;;;;5073252;28;20033;-13
2022/05/14 12:13:44;;;;;;;7.63;5.57;;;31.20;44.50;;;;;;5073533;28;20029;-13
2022/05/14 12:16:11;;;;;;;8.85;5.75;;;30.90;44.60;;;;;;5030735;28;20136;-13
2022/05/14 12:18:43;;;;;;;7.53;5.40;;;30.80;45.60;;;;;;5030717;28;20029;-13
2022/05/14 12:21:10;;;;;;;7.68;5.43;;;30.90;45.60;;;;;;5031424;28;20056;-13
2022/05/14 12:23:42;;;;;;;8.57;5.93;;;30.90;45.60;;;;;;5030961;28;20030;-13
2022/05/14 12:26:27;;;;;;;7.47;5.70;;;30.90;46.10;;;;;;5030899;28;20112;-13
2022/05/14 12:29:00;;;;;;;8.55;6.32;;;30.90;45.90;;;;;;5030876;28;20037;-13
2022/05/14 12:34:20;;;;;;;7.68;6.20;;;31.00;45.20;;;;;;5031014;28;20120;-13
2022/05/14 12:36:50;;;;;;;6.03;5.10;;;31.00;45.30;;;;;;5030809;28;20083;-13
2022/05/14 12:39:23;;;;;;;10.38;6.05;;;31.20;44.90;;;;;;5030862;28;20034;-13
2022/05/14 12:41:58;;;;;;;8.38;5.95;;;31.30;44.60;;;;;;5030807;28;20061;-13
2022/05/14 12:44:31;;;;;;;7.65;5.63;;;31.50;44.10;;;;;;5030723;28;20046;-13
2022/05/14 12:47:01;;;;;;;8.60;5.78;;;31.70;44.00;;;;;;5030870;28;20048;-13
2022/05/14 12:49:35;;;;;;;10.48;6.43;;;32.10;43.80;;;;;;5030660;28;20558;-13
2022/05/14 12:52:08;;;;;;;8.07;5.85;;;32.50;43.10;;;;;;5043886;28;20043;-13
2022/05/14 12:54:36;;;;;;;8.75;6.00;;;33.10;42.00;;;;;;5076620;28;20396;-13
2022/05/14 12:57:05;;;;;;;9.43;6.00;;;33.50;41.10;;;;;;5076658;28;20056;-13
2022/05/14 12:59:32;;;;;;;6.95;5.30;;;33.50;40.80;;;;;;5076625;28;20017;-14
2022/05/14 13:02:04;;;;;;;8.98;6.18;;;33.50;40.70;;;;;;5076254;28;20032;-13
2022/05/14 13:04:43;;;;;;;13.27;6.82;;;33.40;40.60;;;;;;5076447;28;20023;-14
2022/05/14 13:07:12;;;;;;;8.38;6.63;;;33.40;40.60;;;;;;5076656;28;20037;-13
2022/05/14 13:09:41;;;;;;;9.85;6.30;;;33.30;40.90;;;;;;5076369;28;20380;-13
2022/05/14 13:12:20;;;;;;;10.52;6.68;;;33.60;40.50;;;;;;5076704;28;20050;-13
2022/05/14 13:14:58;;;;;;;8.23;7.00;;;33.90;39.60;;;;;;5076682;28;20020;-13
2022/05/14 13:17:36;;;;;;;9.07;6.47;;;34.00;39.40;;;;;;5075869;28;20119;-14
2022/05/14 13:20:22;;;;;;;11.38;6.60;;;34.10;39.50;;;;;;5076003;28;20054;-14
2022/05/14 13:22:48;;;;;;;8.90;6.35;;;34.50;39.00;;;;;;5076506;28;20157;-13
2022/05/14 13:25:33;;;;;;;8.20;6.40;;;34.90;38.10;;;;;;5076165;28;20024;-13
2022/05/14 13:28:16;;;;;;;9.73;6.20;;;35.20;37.80;;;;;;5076159;28;20024;-13
2022/05/14 13:30:43;;;;;;;9.93;6.30;;;35.30;38.20;;;;;;5076091;28;20024;-13